Time;durP1;ratioP1;P1;durP2;ratioP2;P2;SDS_P1;SDS_P2;PMS_P1;PMS_P2;Temp;Humidity;BMP_temperature;BMP_pressure;BME280_temperature;BME280_humidity;BME280_pressure;Samples;Min_cycle;Max_cycle;Signal;HPM_P1;HPM_P2
2021/04/29 00:01:57;;;;;;;14.77;9.55;;;;;;;;;;5093728;28;20179;-87
2021/04/29 00:04:23;;;;;;;14.18;10.18;;;;;;;;;;5099242;28;20216;-88
2021/04/29 00:06:49;;;;;;;19.30;11.80;;;;;;;;;;5090467;28;20765;-86
2021/04/29 00:09:16;;;;;;;16.30;11.93;;;;;;;;;;5110697;28;20192;-87
2021/04/29 00:11:42;;;;;;;15.15;9.68;;;;;;;;;;5102378;28;20171;-88
2021/04/29 00:14:10;;;;;;;15.13;10.52;;;;;;;;;;5099516;28;20618;-87
2021/04/29 00:16:36;;;;;;;13.57;10.48;;;;;;;;;;5109701;28;20251;-87
2021/04/29 00:19:02;;;;;;;16.75;11.43;;;;;;;;;;5108019;28;20251;-87
2021/04/29 00:21:28;;;;;;;11.43;9.05;;;;;;;;;;5101796;28;20195;-87
2021/04/29 00:23:55;;;;;;;12.07;8.90;;;;;;;;;;5108198;28;20202;-87
2021/04/29 00:26:20;;;;;;;16.52;10.40;;;;;;;;;;5105133;28;20171;-88
2021/04/29 00:28:47;;;;;;;12.95;9.07;;;;;;;;;;5105043;28;20186;-87
2021/04/29 00:31:12;;;;;;;11.27;8.50;;;;;;;;;;5109353;28;20176;-87
2021/04/29 00:33:38;;;;;;;11.75;9.35;;;;;;;;;;5109028;28;20457;-87
2021/04/29 00:36:05;;;;;;;9.93;8.27;;;;;;;;;;5111417;28;20601;-87
2021/04/29 00:38:31;;;;;;;11.35;7.95;;;;;;;;;;5087753;28;20419;-88
2021/04/29 00:41:01;;;;;;;11.32;9.43;;;;;;;;;;5093877;28;20213;-88
2021/04/29 00:43:27;;;;;;;12.95;9.43;;;;;;;;;;5096328;28;20228;-88
2021/04/29 00:45:53;;;;;;;15.18;8.95;;;;;;;;;;5101536;28;20176;-88
2021/04/29 00:48:19;;;;;;;12.07;8.38;;;;;;;;;;5085781;28;20187;-87
2021/04/29 00:50:45;;;;;;;9.55;8.25;;;;;;;;;;5095833;28;20210;-88
2021/04/29 00:53:11;;;;;;;11.43;8.70;;;;;;;;;;5097010;28;20184;-87
2021/04/29 00:55:37;;;;;;;13.13;9.48;;;;;;;;;;5091966;28;20601;-86
2021/04/29 00:58:03;;;;;;;10.15;8.65;;;;;;;;;;5088254;28;20204;-88
2021/04/29 01:00:30;;;;;;;13.45;7.97;;;;;;;;;;5112256;28;20183;-87
2021/04/29 01:02:58;;;;;;;13.02;8.65;;;;;;;;;;5104856;28;20258;-88
2021/04/29 01:05:26;;;;;;;12.40;8.48;;;;;;;;;;5103068;28;20262;-87
2021/04/29 01:07:57;;;;;;;11.82;9.35;;;;;;;;;;5100452;28;20551;-88
2021/04/29 01:10:26;;;;;;;13.75;9.93;;;;;;;;;;5097313;28;20184;-87
2021/04/29 01:12:52;;;;;;;10.75;8.70;;;;;;;;;;5099244;28;20703;-87
2021/04/29 01:15:18;;;;;;;10.60;8.73;;;;;;;;;;5105158;28;20183;-86
2021/04/29 01:17:46;;;;;;;12.35;9.00;;;;;;;;;;5107043;28;20493;-88
2021/04/29 01:20:35;;;;;;;9.75;8.50;;;;;;;;;;5102697;28;20240;-88
2021/04/29 01:23:04;;;;;;;11.82;8.55;;;;;;;;;;5027345;28;20296;-88
2021/04/29 01:25:31;;;;;;;11.90;9.15;;;;;;;;;;5047431;28;20260;-88
2021/04/29 01:27:58;;;;;;;8.88;7.95;;;;;;;;;;5040295;28;20194;-87
2021/04/29 01:30:24;;;;;;;14.00;9.63;;;;;;;;;;5040957;28;20292;-87
2021/04/29 01:32:51;;;;;;;12.75;9.65;;;;;;;;;;5041720;28;20240;-86
2021/04/29 01:35:17;;;;;;;13.48;10.65;;;;;;;;;;5040177;28;20280;-88
2021/04/29 01:37:43;;;;;;;11.93;8.35;;;;;;;;;;5023769;28;20182;-88
2021/04/29 01:40:11;;;;;;;10.75;9.25;;;;;;;;;;5040706;28;20225;-87
2021/04/29 01:42:37;;;;;;;12.95;9.95;;;;;;;;;;5051660;28;20196;-88
2021/04/29 01:45:04;;;;;;;15.77;10.50;;;;;;;;;;5051647;28;20698;-89
2021/04/29 01:47:33;;;;;;;12.20;10.50;;;;;;;;;;5048294;28;20181;-85
2021/04/29 01:49:59;;;;;;;14.45;10.50;;;;;;;;;;5029472;28;20196;-87
2021/04/29 01:52:25;;;;;;;12.40;9.57;;;;;;;;;;5030168;28;20214;-87
2021/04/29 01:54:51;;;;;;;14.02;11.32;;;;;;;;;;5051225;28;20444;-87
2021/04/29 01:57:18;;;;;;;12.82;10.52;;;;;;;;;;5050240;28;20193;-87
2021/04/29 01:59:44;;;;;;;10.98;9.55;;;;;;;;;;5058309;28;20219;-87
2021/04/29 02:02:10;;;;;;;13.43;10.70;;;;;;;;;;5106047;28;20182;-88
2021/04/29 02:04:36;;;;;;;14.10;10.53;;;;;;;;;;5101039;28;20222;-88
2021/04/29 02:07:02;;;;;;;15.15;10.65;;;;;;;;;;5109397;28;20464;-87
2021/04/29 02:09:28;;;;;;;18.65;11.45;;;;;;;;;;5106102;28;20196;-86
2021/04/29 02:11:59;;;;;;;17.40;14.63;;;;;;;;;;5087385;28;20186;-87
2021/04/29 02:14:37;;;;;;;17.52;13.18;;;;;;;;;;5101851;28;20176;-88
2021/04/29 02:17:06;;;;;;;24.85;16.90;;;;;;;;;;5093876;28;20183;-88
2021/04/29 02:19:32;;;;;;;23.20;16.48;;;;;;;;;;5096450;28;20489;-87
2021/04/29 02:21:59;;;;;;;23.83;17.00;;;;;;;;;;5095972;28;20181;-90
2021/04/29 02:24:25;;;;;;;20.77;15.40;;;;;;;;;;5089664;28;20226;-87
2021/04/29 02:26:51;;;;;;;25.13;17.20;;;;;;;;;;5105458;28;20179;-88
2021/04/29 02:29:18;;;;;;;23.00;16.45;;;;;;;;;;5100189;28;20195;-89
2021/04/29 02:31:44;;;;;;;19.90;14.98;;;;;;;;;;5103047;28;20209;-90
2021/04/29 02:34:10;;;;;;;19.60;15.30;;;;;;;;;;5112932;28;20290;-88
2021/04/29 02:36:37;;;;;;;19.15;14.65;;;;;;;;;;5111765;28;20184;-89
2021/04/29 02:39:05;;;;;;;19.23;14.05;;;;;;;;;;5106404;28;20424;-89
2021/04/29 02:41:31;;;;;;;14.07;12.52;;;;;;;;;;5107463;28;20663;-89
2021/04/29 02:43:59;;;;;;;16.80;12.13;;;;;;;;;;5098781;28;20223;-88
2021/04/29 02:46:25;;;;;;;16.52;11.55;;;;;;;;;;5092602;28;20603;-89
2021/04/29 02:48:52;;;;;;;20.60;12.98;;;;;;;;;;5101240;28;20180;-89
2021/04/29 02:51:18;;;;;;;16.35;13.38;;;;;;;;;;5109510;28;20352;-87
2021/04/29 02:53:44;;;;;;;16.15;11.93;;;;;;;;;;5090151;28;20248;-89
2021/04/29 02:56:10;;;;;;;16.92;11.00;;;;;;;;;;5100502;28;20213;-89
2021/04/29 02:58:54;;;;;;;15.60;11.75;;;;;;;;;;5104142;28;20280;-89
2021/04/29 03:01:20;;;;;;;15.13;11.63;;;;;;;;;;5107052;28;20192;-90
2021/04/29 03:03:47;;;;;;;14.20;12.27;;;;;;;;;;5101464;28;20282;-88
2021/04/29 03:06:13;;;;;;;15.63;12.60;;;;;;;;;;5098521;28;20180;-90
2021/04/29 03:08:39;;;;;;;18.52;13.30;;;;;;;;;;5100390;28;20229;-89
2021/04/29 03:11:05;;;;;;;18.23;12.50;;;;;;;;;;5102918;28;20700;-90
2021/04/29 03:13:31;;;;;;;17.85;11.73;;;;;;;;;;5105457;28;20442;-90
2021/04/29 03:15:58;;;;;;;17.50;11.60;;;;;;;;;;5114692;28;20200;-90
2021/04/29 03:18:23;;;;;;;17.55;12.73;;;;;;;;;;5101494;28;20252;-88
2021/04/29 03:20:49;;;;;;;14.95;13.02;;;;;;;;;;5110866;28;20187;-89
2021/04/29 03:23:15;;;;;;;17.80;12.18;;;;;;;;;;5103650;28;20193;-88
2021/04/29 03:25:42;;;;;;;15.50;12.70;;;;;;;;;;5105805;28;20179;-90
2021/04/29 03:28:07;;;;;;;16.70;13.35;;;;;;;;;;5106809;28;20442;-89
2021/04/29 03:30:33;;;;;;;23.83;15.27;;;;;;;;;;5101903;28;20192;-90
2021/04/29 03:32:59;;;;;;;23.50;14.68;;;;;;;;;;5099699;28;20254;-88
2021/04/29 03:35:25;;;;;;;21.75;15.60;;;;;;;;;;5092761;28;20180;-89
2021/04/29 03:37:51;;;;;;;28.38;18.77;;;;;;;;;;5099016;28;20183;-88
2021/04/29 03:40:17;;;;;;;23.00;16.38;;;;;;;;;;5099447;28;20188;-93
2021/04/29 03:42:43;;;;;;;26.20;18.05;;;;;;;;;;5096516;28;20202;-89
2021/04/29 03:45:10;;;;;;;30.27;20.67;;;;;;;;;;5107536;28;20283;-90
2021/04/29 03:47:36;;;;;;;25.92;20.13;;;;;;;;;;5098454;28;20549;-89
2021/04/29 03:50:02;;;;;;;27.08;20.52;;;;;;;;;;5097998;28;20187;-90
2021/04/29 03:52:28;;;;;;;28.17;19.70;;;;;;;;;;5106517;28;20237;-88
2021/04/29 03:54:54;;;;;;;29.98;20.00;;;;;;;;;;5114611;28;20180;-88
2021/04/29 03:57:20;;;;;;;25.75;17.65;;;;;;;;;;5111328;28;20199;-90
2021/04/29 03:59:46;;;;;;;22.87;17.73;;;;;;;;;;5115627;28;20551;-89
2021/04/29 04:02:12;;;;;;;26.10;17.80;;;;;;;;;;5109712;28;20432;-88
2021/04/29 04:04:38;;;;;;;26.08;19.40;;;;;;;;;;5096562;28;20704;-88
2021/04/29 04:07:04;;;;;;;26.23;18.80;;;;;;;;;;5108066;28;20179;-89
2021/04/29 04:09:30;;;;;;;24.98;18.63;;;;;;;;;;5096732;28;20180;-88
2021/04/29 04:11:56;;;;;;;24.75;18.35;;;;;;;;;;5110120;28;20236;-87
2021/04/29 04:14:22;;;;;;;27.23;19.37;;;;;;;;;;5103789;28;20229;-90
2021/04/29 04:16:48;;;;;;;24.00;17.75;;;;;;;;;;5098465;28;20822;-89
2021/04/29 04:19:14;;;;;;;24.25;18.35;;;;;;;;;;5096507;28;20180;-87
2021/04/29 04:21:40;;;;;;;23.85;17.27;;;;;;;;;;5099131;28;20189;-88
2021/04/29 04:24:06;;;;;;;27.33;20.08;;;;;;;;;;5092408;28;20195;-88
2021/04/29 04:26:32;;;;;;;30.92;20.45;;;;;;;;;;5104310;28;20175;-89
2021/04/29 04:28:58;;;;;;;29.17;20.13;;;;;;;;;;5102785;28;20547;-90
2021/04/29 04:31:24;;;;;;;27.92;20.30;;;;;;;;;;5111144;28;20248;-87
2021/04/29 04:33:50;;;;;;;32.25;19.25;;;;;;;;;;5109104;28;20180;-88
2021/04/29 04:36:17;;;;;;;28.65;20.17;;;;;;;;;;5097705;28;20204;-87
2021/04/29 04:38:43;;;;;;;32.95;19.67;;;;;;;;;;5095533;28;20173;-87
2021/04/29 04:41:09;;;;;;;29.63;21.02;;;;;;;;;;5102655;28;20244;-87
2021/04/29 04:43:35;;;;;;;37.38;24.08;;;;;;;;;;5097158;28;20228;-86
2021/04/29 04:46:01;;;;;;;35.13;21.73;;;;;;;;;;5089774;28;20180;-86
2021/04/29 04:48:27;;;;;;;30.20;21.92;;;;;;;;;;5110574;28;20172;-87
2021/04/29 04:50:53;;;;;;;35.80;22.25;;;;;;;;;;5109231;28;20186;-86
2021/04/29 04:53:20;;;;;;;30.13;22.00;;;;;;;;;;5097984;28;20167;-88
2021/04/29 04:55:48;;;;;;;32.05;24.17;;;;;;;;;;5104160;28;20438;-90
2021/04/29 04:58:15;;;;;;;40.63;23.75;;;;;;;;;;5098511;28;20195;-87
2021/04/29 05:00:41;;;;;;;34.13;22.38;;;;;;;;;;5091846;28;20195;-88
2021/04/29 05:03:07;;;;;;;41.57;24.97;;;;;;;;;;5107246;28;20175;-87
2021/04/29 05:05:33;;;;;;;32.33;22.27;;;;;;;;;;5098508;28;20453;-89
2021/04/29 05:08:00;;;;;;;35.60;24.13;;;;;;;;;;5100703;28;20175;-90
2021/04/29 05:10:26;;;;;;;38.78;23.98;;;;;;;;;;5106762;28;20191;-91
2021/04/29 05:12:53;;;;;;;37.17;23.67;;;;;;;;;;5095690;28;20205;-86
2021/04/29 05:15:20;;;;;;;35.65;24.00;;;;;;;;;;5111801;28;20187;-89
2021/04/29 05:17:46;;;;;;;39.25;24.75;;;;;;;;;;5099772;28;20179;-90
2021/04/29 05:20:12;;;;;;;37.22;24.63;;;;;;;;;;5103032;28;20310;-90
2021/04/29 05:22:38;;;;;;;33.08;23.80;;;;;;;;;;5101299;28;20215;-89
2021/04/29 05:25:04;;;;;;;37.97;24.47;;;;;;;;;;5089869;28;20203;-89
2021/04/29 05:27:30;;;;;;;42.88;25.05;;;;;;;;;;5094919;28;20486;-91
2021/04/29 05:29:56;;;;;;;40.10;24.63;;;;;;;;;;5086253;28;20188;-89
2021/04/29 05:32:22;;;;;;;37.35;23.95;;;;;;;;;;5098910;28;20463;-89
2021/04/29 05:34:48;;;;;;;37.17;23.33;;;;;;;;;;5094397;28;20191;-90
2021/04/29 05:37:14;;;;;;;32.00;23.23;;;;;;;;;;5095363;28;20195;-88
2021/04/29 05:39:40;;;;;;;38.00;23.13;;;;;;;;;;5099944;28;20429;-90
2021/04/29 05:42:06;;;;;;;34.78;24.45;;;;;;;;;;5098964;28;20186;-92
2021/04/29 05:44:32;;;;;;;32.35;21.90;;;;;;;;;;5095204;28;20227;-89
2021/04/29 05:46:58;;;;;;;40.30;24.50;;;;;;;;;;5102227;28;20190;-90
2021/04/29 05:49:24;;;;;;;33.00;21.50;;;;;;;;;;5092957;28;20446;-91
2021/04/29 05:51:50;;;;;;;34.88;23.65;;;;;;;;;;5108255;28;20248;-89
2021/04/29 05:54:16;;;;;;;30.03;22.13;;;;;;;;;;5112070;28;20199;-88
2021/04/29 05:56:42;;;;;;;35.08;22.95;;;;;;;;;;5105024;28;20425;-90
2021/04/29 05:59:08;;;;;;;37.83;22.17;;;;;;;;;;5108480;28;20733;-90
2021/04/29 06:01:34;;;;;;;36.47;22.45;;;;;;;;;;5108296;28;20441;-89
2021/04/29 06:04:00;;;;;;;34.78;22.30;;;;;;;;;;5090401;28;20226;-90
2021/04/29 06:06:26;;;;;;;37.55;22.20;;;;;;;;;;5108361;28;20565;-87
2021/04/29 06:08:52;;;;;;;29.88;20.77;;;;;;;;;;5113837;28;20222;-88
2021/04/29 06:11:18;;;;;;;33.78;24.73;;;;;;;;;;5100619;28;20180;-90
2021/04/29 06:13:53;;;;;;;33.20;21.65;;;;;;;;;;5098296;28;20218;-90
2021/04/29 06:16:19;;;;;;;33.15;20.77;;;;;;;;;;5108408;28;20191;-90
2021/04/29 06:18:45;;;;;;;25.88;20.23;;;;;;;;;;5103325;28;20183;-89
2021/04/29 06:21:11;;;;;;;25.30;18.37;;;;;;;;;;5110010;28;20171;-90
2021/04/29 06:23:42;;;;;;;30.25;19.08;;;;;;;;;;5101025;28;20515;-90
2021/04/29 06:26:11;;;;;;;29.63;19.02;;;;;;;;;;5104672;28;20187;-90
2021/04/29 06:28:44;;;;;;;27.83;17.67;;;;;;;;;;5111465;28;20253;-89
2021/04/29 06:31:13;;;;;;;28.70;18.52;;;;;;;;;;5112602;28;20180;-93
2021/04/29 06:33:39;;;;;;;26.90;16.92;;;;;;;;;;5111581;28;20220;-87
2021/04/29 06:36:06;;;;;;;30.08;17.48;;;;;;;;;;5111978;28;20178;-88
2021/04/29 06:38:34;;;;;;;27.60;19.08;;;;;;;;;;5094589;28;20217;-88
2021/04/29 06:41:00;;;;;;;30.80;18.77;;;;;;;;;;5097037;28;20183;-85
2021/04/29 06:43:26;;;;;;;27.83;17.92;;;;;;;;;;5096901;28;20345;-85
2021/04/29 06:45:52;;;;;;;28.23;18.30;;;;;;;;;;5056963;28;20185;-86
2021/04/29 06:48:19;;;;;;;29.75;19.60;;;;;;;;;;5062372;28;20177;-84
2021/04/29 06:50:45;;;;;;;29.17;17.35;;;;;;;;;;5085133;28;20658;-85
2021/04/29 06:53:11;;;;;;;23.30;17.90;;;;;;;;;;5076718;28;20184;-86
2021/04/29 06:55:37;;;;;;;26.38;18.05;;;;;;;;;;5061149;28;20263;-81
2021/04/29 06:58:03;;;;;;;24.53;16.60;;;;;;;;;;5074757;28;20188;-84
2021/04/29 07:00:30;;;;;;;27.30;14.75;;;;;;;;;;5056134;28;20447;-82
2021/04/29 07:02:56;;;;;;;29.60;17.67;;;;;;;;;;5056257;28;20177;-85
2021/04/29 07:05:23;;;;;;;26.95;15.52;;;;;;;;;;5049339;28;20212;-81
2021/04/29 07:07:52;;;;;;;32.95;15.77;;;;;;;;;;5066666;28;20173;-83
2021/04/29 07:10:18;;;;;;;27.42;14.35;;;;;;;;;;5054963;28;20177;-88
2021/04/29 07:12:44;;;;;;;27.27;14.57;;;;;;;;;;5069785;28;20184;-87
2021/04/29 07:15:10;;;;;;;22.83;14.68;;;;;;;;;;5085348;28;20198;-83
2021/04/29 07:17:37;;;;;;;26.80;16.17;;;;;;;;;;5067802;28;20172;-83
2021/04/29 07:20:04;;;;;;;18.50;14.15;;;;;;;;;;5077096;28;20185;-84
2021/04/29 07:22:30;;;;;;;27.20;15.30;;;;;;;;;;5053520;28;20185;-82
2021/04/29 07:24:56;;;;;;;28.38;15.95;;;;;;;;;;5052687;28;20761;-81
2021/04/29 07:27:22;;;;;;;22.80;14.57;;;;;;;;;;5085393;28;20180;-83
2021/04/29 07:29:48;;;;;;;25.30;13.50;;;;;;;;;;5091449;28;20410;-89
2021/04/29 07:32:14;;;;;;;25.10;14.55;;;;;;;;;;5065147;28;20220;-87
2021/04/29 07:34:40;;;;;;;22.33;15.77;;;;;;;;;;5064588;28;20274;-84
2021/04/29 07:37:06;;;;;;;22.67;14.13;;;;;;;;;;5069589;28;20441;-87
2021/04/29 07:39:33;;;;;;;28.67;15.95;;;;;;;;;;5077863;28;20185;-83
2021/04/29 07:41:59;;;;;;;18.38;12.32;;;;;;;;;;5059824;28;20180;-84
2021/04/29 07:44:28;;;;;;;25.58;14.20;;;;;;;;;;5084531;28;20226;-82
2021/04/29 07:46:54;;;;;;;26.25;15.63;;;;;;;;;;5065690;28;20184;-83
2021/04/29 07:49:20;;;;;;;21.23;13.80;;;;;;;;;;5080151;28;20181;-84
2021/04/29 07:51:46;;;;;;;28.08;13.73;;;;;;;;;;5069051;28;20187;-82
2021/04/29 07:54:14;;;;;;;23.03;12.57;;;;;;;;;;5068019;28;20200;-84
2021/04/29 07:56:40;;;;;;;17.40;14.23;;;;;;;;;;5065820;28;20434;-83
2021/04/29 07:59:06;;;;;;;16.25;11.50;;;;;;;;;;5076946;28;20744;-83
2021/04/29 08:01:33;;;;;;;24.88;14.00;;;;;;;;;;5060980;28;20197;-81
2021/04/29 08:04:02;;;;;;;14.40;10.90;;;;;;;;;;5089177;28;20459;-81
2021/04/29 08:06:28;;;;;;;22.67;13.32;;;;;;;;;;5063311;28;20234;-78
2021/04/29 08:08:55;;;;;;;19.08;12.52;;;;;;;;;;5060909;28;20272;-81
2021/04/29 08:11:21;;;;;;;24.95;11.25;;;;;;;;;;5076530;28;20182;-80
2021/04/29 08:13:47;;;;;;;24.30;12.30;;;;;;;;;;5065732;28;20187;-82
2021/04/29 08:16:13;;;;;;;15.77;11.30;;;;;;;;;;5078091;28;20196;-84
2021/04/29 08:18:39;;;;;;;21.42;12.35;;;;;;;;;;5077414;28;20466;-84
2021/04/29 08:21:07;;;;;;;20.30;13.48;;;;;;;;;;5071285;28;20197;-89
2021/04/29 08:23:33;;;;;;;20.90;12.50;;;;;;;;;;5063713;28;20195;-84
2021/04/29 08:25:59;;;;;;;18.35;12.35;;;;;;;;;;5060173;28;20179;-84
2021/04/29 08:28:25;;;;;;;22.33;12.13;;;;;;;;;;5075053;28;20185;-81
2021/04/29 08:30:51;;;;;;;23.95;12.43;;;;;;;;;;5080040;28;20180;-81
2021/04/29 08:33:17;;;;;;;18.13;11.23;;;;;;;;;;5087318;28;20195;-83
2021/04/29 08:35:43;;;;;;;19.03;11.50;;;;;;;;;;5070446;28;20239;-82
2021/04/29 08:38:09;;;;;;;17.47;10.40;;;;;;;;;;5077602;28;20429;-82
2021/04/29 08:40:35;;;;;;;16.30;10.23;;;;;;;;;;5076878;28;20434;-83
2021/04/29 08:43:01;;;;;;;16.80;10.95;;;;;;;;;;5071572;28;20474;-79
2021/04/29 08:45:27;;;;;;;20.00;11.17;;;;;;;;;;5081835;28;20240;-84
2021/04/29 08:47:54;;;;;;;15.90;9.85;;;;;;;;;;5064804;28;20422;-81
2021/04/29 08:50:20;;;;;;;14.38;9.68;;;;;;;;;;5054140;28;20184;-85
2021/04/29 08:52:46;;;;;;;12.23;8.98;;;;;;;;;;5059661;28;20181;-84
2021/04/29 08:55:17;;;;;;;11.48;8.93;;;;;;;;;;5062674;28;20279;-89
2021/04/29 08:57:43;;;;;;;12.48;9.00;;;;;;;;;;5060124;28;20196;-81
2021/04/29 09:00:10;;;;;;;17.48;8.80;;;;;;;;;;5073468;28;20176;-80
2021/04/29 09:02:36;;;;;;;16.20;8.70;;;;;;;;;;5085331;28;20245;-84
2021/04/29 09:05:09;;;;;;;12.73;8.40;;;;;;;;;;5080134;28;20294;-79
2021/04/29 09:07:36;;;;;;;14.95;8.77;;;;;;;;;;5080801;28;20180;-86
2021/04/29 09:10:02;;;;;;;14.43;9.35;;;;;;;;;;5074513;28;20215;-82
2021/04/29 09:12:35;;;;;;;13.85;8.80;;;;;;;;;;5068367;28;20184;-82
2021/04/29 09:15:01;;;;;;;12.40;8.82;;;;;;;;;;5088787;28;20182;-81
2021/04/29 09:17:27;;;;;;;11.65;8.82;;;;;;;;;;5082615;28;20663;-81
2021/04/29 09:19:53;;;;;;;11.85;8.73;;;;;;;;;;5079768;28;20185;-84
2021/04/29 09:22:20;;;;;;;12.43;8.50;;;;;;;;;;5084711;28;20258;-83
2021/04/29 09:24:46;;;;;;;10.70;7.05;;;;;;;;;;5089709;28;20201;-85
2021/04/29 09:27:13;;;;;;;10.90;8.18;;;;;;;;;;5073137;28;20176;-89
2021/04/29 09:29:49;;;;;;;11.90;7.45;;;;;;;;;;5064325;28;20194;-84
2021/04/29 09:32:24;;;;;;;10.55;7.40;;;;;;;;;;5064457;28;20247;-78
2021/04/29 09:34:50;;;;;;;12.10;8.20;;;;;;;;;;5074125;28;20184;-86
2021/04/29 09:37:28;;;;;;;15.10;8.25;;;;;;;;;;5077253;28;20185;-83
2021/04/29 09:39:54;;;;;;;9.23;7.57;;;;;;;;;;5075009;28;20179;-85
2021/04/29 09:42:28;;;;;;;14.65;7.65;;;;;;;;;;5056476;28;20705;-85
2021/04/29 09:44:54;;;;;;;13.15;7.07;;;;;;;;;;5101598;28;20223;-82
2021/04/29 09:47:20;;;;;;;8.40;6.43;;;;;;;;;;5098567;28;20167;-80
2021/04/29 09:49:46;;;;;;;7.30;6.30;;;;;;;;;;5101507;28;20271;-84
2021/04/29 09:52:24;;;;;;;9.90;6.30;;;;;;;;;;5106921;28;20199;-85
2021/04/29 09:54:50;;;;;;;15.20;7.93;;;;;;;;;;5108126;28;20433;-80
2021/04/29 09:57:22;;;;;;;7.88;6.85;;;;;;;;;;5090101;28;20207;-79
2021/04/29 09:59:51;;;;;;;9.27;6.00;;;;;;;;;;5097649;28;20186;-81
2021/04/29 10:02:18;;;;;;;6.78;6.18;;;;;;;;;;5096019;28;20178;-81
2021/04/29 10:04:45;;;;;;;9.18;6.97;;;;;;;;;;5095348;28;20203;-83
2021/04/29 10:07:11;;;;;;;5.85;5.32;;;;;;;;;;5088939;28;20205;-81
2021/04/29 10:09:38;;;;;;;7.53;6.70;;;;;;;;;;5094438;28;20184;-79
2021/04/29 10:12:09;;;;;;;9.77;7.20;;;;;;;;;;5094690;28;20180;-84
2021/04/29 10:14:36;;;;;;;6.72;6.10;;;;;;;;;;5101262;28;20194;-83
2021/04/29 10:17:03;;;;;;;8.25;6.70;;;;;;;;;;5099544;28;20184;-82
2021/04/29 10:19:30;;;;;;;9.63;6.38;;;;;;;;;;5099762;28;20255;-81
2021/04/29 10:21:58;;;;;;;8.15;5.50;;;;;;;;;;5108097;28;20179;-81
2021/04/29 10:24:25;;;;;;;9.68;6.47;;;;;;;;;;5094887;28;20200;-84
2021/04/29 10:27:00;;;;;;;7.32;6.43;;;;;;;;;;5097070;28;20195;-82
2021/04/29 10:29:26;;;;;;;9.60;5.97;;;;;;;;;;5100074;28;20166;-82
2021/04/29 10:31:56;;;;;;;7.63;5.95;;;;;;;;;;5105543;28;20253;-83
2021/04/29 10:34:22;;;;;;;7.57;5.80;;;;;;;;;;5103544;28;20247;-80
2021/04/29 10:36:49;;;;;;;8.20;7.00;;;;;;;;;;5091753;28;20179;-83
2021/04/29 10:39:19;;;;;;;7.13;6.45;;;;;;;;;;5082277;28;20188;-83
2021/04/29 10:41:47;;;;;;;6.90;6.20;;;;;;;;;;5104464;28;20186;-83
2021/04/29 10:44:15;;;;;;;6.13;5.53;;;;;;;;;;5090056;28;20429;-82
2021/04/29 10:46:42;;;;;;;6.65;5.95;;;;;;;;;;5099574;28;20238;-83
2021/04/29 10:49:08;;;;;;;6.47;5.78;;;;;;;;;;5089162;28;20216;-86
2021/04/29 10:51:34;;;;;;;8.50;6.30;;;;;;;;;;5100023;28;20176;-80
2021/04/29 10:54:22;;;;;;;7.10;5.85;;;;;;;;;;5103633;28;20175;-83
2021/04/29 10:57:08;;;;;;;6.15;5.60;;;;;;;;;;5103089;28;20186;-88
2021/04/29 10:59:45;;;;;;;6.85;5.95;;;;;;;;;;5097575;28;20187;-84
2021/04/29 11:02:24;;;;;;;7.38;6.38;;;;;;;;;;5101079;28;20190;-83
2021/04/29 11:04:52;;;;;;;8.60;5.80;;;;;;;;;;5107501;28;20216;-84
2021/04/29 11:07:18;;;;;;;7.05;6.28;;;;;;;;;;5105877;28;20185;-81
2021/04/29 11:09:44;;;;;;;10.70;7.18;;;;;;;;;;5111536;28;20319;-81
2021/04/29 11:12:11;;;;;;;7.32;6.47;;;;;;;;;;5104471;28;20176;-81
2021/04/29 11:14:45;;;;;;;7.53;6.82;;;;;;;;;;5094366;28;20191;-82
2021/04/29 11:17:18;;;;;;;7.40;6.60;;;;;;;;;;5103176;28;20179;-79
2021/04/29 11:19:46;;;;;;;7.25;6.05;;;;;;;;;;5109332;28;20186;-81
2021/04/29 11:22:15;;;;;;;14.73;6.70;;;;;;;;;;5089482;28;20187;-81
2021/04/29 11:24:49;;;;;;;8.45;7.65;;;;;;;;;;5096081;28;20200;-80
2021/04/29 11:27:19;;;;;;;7.53;6.82;;;;;;;;;;5112049;28;20194;-80
2021/04/29 11:29:45;;;;;;;8.25;6.63;;;;;;;;;;5100300;28;20184;-81
2021/04/29 11:32:11;;;;;;;7.00;5.95;;;;;;;;;;5096773;28;20181;-81
2021/04/29 11:34:44;;;;;;;7.75;7.07;;;;;;;;;;5096983;28;20184;-81
2021/04/29 11:37:11;;;;;;;6.57;5.93;;;;;;;;;;5090302;28;20184;-82
2021/04/29 11:39:37;;;;;;;8.27;5.70;;;;;;;;;;5108476;28;20198;-78
2021/04/29 11:42:03;;;;;;;9.48;5.90;;;;;;;;;;5104523;28;20207;-82
2021/04/29 11:44:29;;;;;;;8.75;5.47;;;;;;;;;;5088929;28;20223;-81
2021/04/29 11:46:55;;;;;;;6.43;5.82;;;;;;;;;;5077843;28;20201;-82
2021/04/29 11:49:21;;;;;;;7.82;5.20;;;;;;;;;;5069070;28;20191;-80
2021/04/29 11:51:48;;;;;;;6.90;4.90;;;;;;;;;;5088637;28;20205;-82
2021/04/29 11:54:17;;;;;;;6.78;5.57;;;;;;;;;;5079378;28;20197;-81
2021/04/29 11:56:46;;;;;;;8.85;5.63;;;;;;;;;;5061795;28;20176;-80
2021/04/29 11:59:13;;;;;;;5.43;4.93;;;;;;;;;;5072515;28;20189;-79
2021/04/29 12:01:39;;;;;;;7.10;5.20;;;;;;;;;;5048036;28;20190;-84
2021/04/29 12:04:15;;;;;;;6.45;5.22;;;;;;;;;;5074974;28;20216;-81
2021/04/29 12:07:08;;;;;;;10.88;5.70;;;;;;;;;;5060941;28;20177;-82
2021/04/29 12:09:34;;;;;;;7.35;6.30;;;;;;;;;;5046849;28;20188;-81
2021/04/29 12:12:16;;;;;;;8.37;5.90;;;;;;;;;;5074625;28;20182;-81
2021/04/29 12:15:08;;;;;;;7.13;5.57;;;;;;;;;;5084952;28;20427;-86
2021/04/29 12:17:35;;;;;;;6.72;5.47;;;;;;;;;;5048391;28;20264;-80
2021/04/29 12:20:01;;;;;;;8.48;6.15;;;;;;;;;;5067934;28;20198;-80
2021/04/29 12:22:28;;;;;;;9.05;5.80;;;;;;;;;;5065183;28;20185;-79
2021/04/29 12:24:54;;;;;;;9.13;5.63;;;;;;;;;;5067187;28;20248;-80
2021/04/29 12:27:21;;;;;;;7.25;5.32;;;;;;;;;;5054130;28;20198;-78
2021/04/29 12:30:00;;;;;;;7.47;5.20;;;;;;;;;;5066014;28;20208;-83
2021/04/29 12:32:35;;;;;;;7.53;5.80;;;;;;;;;;5065553;28;20548;-81
2021/04/29 12:35:01;;;;;;;6.80;4.35;;;;;;;;;;5065714;28;20258;-82
2021/04/29 12:37:27;;;;;;;5.97;4.72;;;;;;;;;;5067989;28;20191;-80
2021/04/29 12:39:53;;;;;;;5.95;5.35;;;;;;;;;;5082819;28;20182;-80
2021/04/29 12:42:21;;;;;;;6.75;5.95;;;;;;;;;;5061240;28;20200;-81
2021/04/29 12:44:48;;;;;;;5.53;4.90;;;;;;;;;;5087031;28;20223;-81
2021/04/29 12:47:28;;;;;;;9.65;5.95;;;;;;;;;;5072522;28;20177;-87
2021/04/29 12:49:57;;;;;;;7.30;5.03;;;;;;;;;;5073794;28;20249;-85
2021/04/29 12:52:23;;;;;;;7.72;5.32;;;;;;;;;;5067920;28;20189;-87
2021/04/29 12:54:51;;;;;;;9.05;5.70;;;;;;;;;;5062490;28;20286;-86
2021/04/29 12:57:23;;;;;;;6.75;5.25;;;;;;;;;;5055462;28;20185;-86
2021/04/29 12:59:49;;;;;;;7.10;5.32;;;;;;;;;;5092376;28;20175;-86
2021/04/29 13:02:19;;;;;;;5.72;4.78;;;;;;;;;;5067601;28;20188;-88
2021/04/29 13:04:45;;;;;;;5.60;4.35;;;;;;;;;;5066417;28;20333;-86
2021/04/29 13:07:20;;;;;;;6.05;5.47;;;;;;;;;;5068406;28;20724;-86
2021/04/29 13:09:49;;;;;;;6.00;5.38;;;;;;;;;;5055661;28;20180;-87
2021/04/29 13:12:16;;;;;;;4.90;4.50;;;;;;;;;;5073298;28;20190;-86
2021/04/29 13:14:43;;;;;;;7.00;5.57;;;;;;;;;;5077230;28;20645;-86
2021/04/29 13:17:14;;;;;;;6.10;5.13;;;;;;;;;;5067917;28;20183;-87
2021/04/29 13:19:43;;;;;;;6.82;4.82;;;;;;;;;;5053886;28;20211;-88
2021/04/29 13:22:09;;;;;;;5.15;4.75;;;;;;;;;;5048812;28;20241;-83
2021/04/29 13:24:35;;;;;;;7.20;5.30;;;;;;;;;;5068286;28;20204;-85
2021/04/29 13:27:02;;;;;;;5.93;3.97;;;;;;;;;;5068916;28;20437;-85
2021/04/29 13:29:28;;;;;;;7.65;5.57;;;;;;;;;;5076056;28;20180;-86
2021/04/29 13:31:55;;;;;;;5.68;4.70;;;;;;;;;;5066421;28;20208;-87
2021/04/29 13:34:21;;;;;;;6.30;5.22;;;;;;;;;;5066852;28;20185;-87
2021/04/29 13:36:47;;;;;;;5.15;4.65;;;;;;;;;;5083818;28;20186;-86
2021/04/29 13:39:13;;;;;;;5.63;4.68;;;;;;;;;;5066240;28;20181;-84
2021/04/29 13:41:44;;;;;;;6.03;4.80;;;;;;;;;;5071179;28;20194;-85
2021/04/29 13:44:10;;;;;;;4.53;4.05;;;;;;;;;;5072714;28;20223;-85
2021/04/29 13:46:36;;;;;;;6.43;4.88;;;;;;;;;;5095790;28;20176;-86
2021/04/29 13:49:02;;;;;;;5.15;4.38;;;;;;;;;;5105242;28;20189;-86
2021/04/29 13:51:28;;;;;;;5.72;3.80;;;;;;;;;;5082239;28;20199;-83
2021/04/29 13:53:54;;;;;;;5.78;4.22;;;;;;;;;;5093310;28;20179;-86
2021/04/29 13:56:20;;;;;;;4.47;4.07;;;;;;;;;;5093053;28;21748;-87
2021/04/29 13:58:46;;;;;;;8.50;4.70;;;;;;;;;;5094677;28;20209;-87
2021/04/29 14:01:13;;;;;;;9.87;4.77;;;;;;;;;;5098606;28;20450;-91
2021/04/29 14:03:39;;;;;;;5.95;4.50;;;;;;;;;;5095731;28;20441;-88
2021/04/29 14:06:06;;;;;;;6.72;4.15;;;;;;;;;;5093881;28;20177;-86
2021/04/29 14:08:33;;;;;;;5.13;4.43;;;;;;;;;;5104208;28;20227;-88
2021/04/29 14:10:59;;;;;;;5.10;4.60;;;;;;;;;;5094177;28;20235;-85
2021/04/29 14:13:25;;;;;;;6.40;4.57;;;;;;;;;;5100603;28;20192;-87
2021/04/29 14:15:51;;;;;;;7.13;4.60;;;;;;;;;;5105876;28;20436;-85
2021/04/29 14:18:17;;;;;;;6.20;4.65;;;;;;;;;;5103872;28;20184;-88
2021/04/29 14:20:44;;;;;;;4.75;4.35;;;;;;;;;;5105642;28;20190;-86
2021/04/29 14:23:10;;;;;;;3.70;3.38;;;;;;;;;;5100937;28;20269;-87
2021/04/29 14:25:36;;;;;;;8.75;5.18;;;;;;;;;;5094226;28;20229;-85
2021/04/29 14:28:02;;;;;;;4.97;4.20;;;;;;;;;;5103426;28;20183;-87
2021/04/29 14:30:29;;;;;;;5.53;4.38;;;;;;;;;;5097341;28;20209;-88